createdAt,value
2023-02-21T00:01:57.853Z,18.80
2023-02-21T00:04:46.503Z,18.60
2023-02-21T00:07:35.352Z,18.74
2023-02-21T00:10:25.082Z,19.07
2023-02-21T00:13:13.450Z,18.18
2023-02-21T00:16:01.810Z,18.62
2023-02-21T00:18:54.454Z,18.02
2023-02-21T00:21:43.622Z,18.67
2023-02-21T00:24:36.709Z,18.12
2023-02-21T00:27:25.370Z,18.94
2023-02-21T00:30:14.050Z,18.44
2023-02-21T00:33:02.397Z,17.77
2023-02-21T00:35:50.785Z,18.89
2023-02-21T00:38:40.446Z,17.92
2023-02-21T00:41:29.398Z,18.95
2023-02-21T00:44:18.050Z,18.55
2023-02-21T00:47:06.553Z,18.10
2023-02-21T00:49:55.033Z,19.24
2023-02-21T00:52:43.733Z,18.45
2023-02-21T00:55:32.975Z,19.33
2023-02-21T00:58:22.899Z,17.68
2023-02-21T01:01:11.890Z,18.39
2023-02-21T01:04:00.714Z,18.39
2023-02-21T01:06:49.269Z,18.75
2023-02-21T01:09:37.988Z,18.74
2023-02-21T01:12:26.836Z,19.10
2023-02-21T01:15:15.947Z,18.86
2023-02-21T01:18:04.550Z,19.44
2023-02-21T01:20:52.950Z,19.39
2023-02-21T01:23:41.457Z,19.02
2023-02-21T01:26:30.576Z,18.39
2023-02-21T01:29:19.135Z,19.22
2023-02-21T01:32:09.696Z,19.22
2023-02-21T01:34:58.208Z,18.41
2023-02-21T01:37:46.793Z,18.75
2023-02-21T01:40:36.064Z,18.55
2023-02-21T01:43:36.295Z,19.48
2023-02-21T01:46:25.992Z,19.24
2023-02-21T01:49:15.273Z,18.91
2023-02-21T01:52:04.613Z,19.28
2023-02-21T01:54:55.825Z,18.37
2023-02-21T01:57:44.938Z,18.27
2023-02-21T02:00:36.929Z,17.93
2023-02-21T02:03:28.694Z,17.80
2023-02-21T02:06:20.010Z,18.88
2023-02-21T02:09:08.252Z,18.02
2023-02-21T02:12:22.488Z,18.20
2023-02-21T02:15:18.828Z,19.10
2023-02-21T02:18:11.742Z,18.74
2023-02-21T02:21:12.531Z,18.74
2023-02-21T02:23:49.107Z,18.46
2023-02-21T02:26:50.088Z,18.96
2023-02-21T02:29:41.856Z,19.25
2023-02-21T02:32:31.839Z,18.75
2023-02-21T02:35:17.171Z,19.65
2023-02-21T02:38:03.705Z,19.76
2023-02-21T02:40:43.111Z,20.24
2023-02-21T02:43:25.466Z,20.16
2023-02-21T02:46:01.923Z,19.95
2023-02-21T02:48:54.967Z,20.77
2023-02-21T02:51:26.933Z,20.40
2023-02-21T02:53:57.478Z,20.63
2023-02-21T02:56:29.565Z,19.40
2023-02-21T02:59:05.521Z,18.14
2023-02-21T03:01:55.656Z,18.73
2023-02-21T03:04:47.294Z,18.67
2023-02-21T03:07:35.608Z,18.67
2023-02-21T03:10:14.808Z,19.56
2023-02-21T03:12:56.957Z,18.62
2023-02-21T03:15:36.156Z,18.20
2023-02-21T03:18:12.521Z,18.79
2023-02-21T03:20:45.305Z,18.85
2023-02-21T03:23:19.058Z,18.80
2023-02-21T03:25:51.779Z,18.88
2023-02-21T03:28:23.364Z,18.88
2023-02-21T03:30:56.933Z,18.33
2023-02-21T03:33:27.853Z,18.56
2023-02-21T03:36:03.842Z,18.53
2023-02-21T03:38:35.437Z,18.53
2023-02-21T03:41:07.989Z,18.24
2023-02-21T03:43:38.641Z,18.24
2023-02-21T03:46:09.167Z,18.14
2023-02-21T03:48:39.748Z,17.79
2023-02-21T03:51:10.357Z,18.32
2023-02-21T03:53:40.910Z,18.15
2023-02-21T03:56:11.431Z,17.42
2023-02-21T03:58:41.922Z,18.90
2023-02-21T04:01:12.633Z,18.05
2023-02-21T04:03:43.385Z,17.95
2023-02-21T04:06:13.905Z,18.46
2023-02-21T04:08:44.487Z,18.76
2023-02-21T04:11:16.735Z,18.31
2023-02-21T04:13:47.388Z,18.08
2023-02-21T04:16:18.221Z,17.19
2023-02-21T04:18:48.850Z,17.87
2023-02-21T04:21:20.416Z,16.80
2023-02-21T04:23:51.296Z,16.80
2023-02-21T04:26:25.653Z,17.04
2023-02-21T04:28:56.808Z,16.55
2023-02-21T04:31:27.299Z,16.48
2023-02-21T04:34:11.014Z,16.65
2023-02-21T04:36:30.203Z,16.50
2023-02-21T04:39:00.761Z,16.02
2023-02-21T04:41:31.235Z,16.28
2023-02-21T04:44:02.900Z,16.77
2023-02-21T04:46:33.563Z,16.97
2023-02-21T04:49:04.090Z,17.33
2023-02-21T04:51:34.799Z,17.02
2023-02-21T04:54:05.564Z,17.57
2023-02-21T04:56:37.948Z,16.21
2023-02-21T04:59:08.539Z,16.91
2023-02-21T05:01:39.283Z,17.26
2023-02-21T05:04:09.866Z,16.87
2023-02-21T05:06:40.497Z,16.83
2023-02-21T05:09:11.269Z,17.22
2023-02-21T05:11:41.840Z,17.21
2023-02-21T05:14:12.297Z,17.24
2023-02-21T05:16:42.979Z,16.94
2023-02-21T05:19:13.548Z,17.25
2023-02-21T05:21:44.080Z,17.06
2023-02-21T05:24:15.691Z,16.89
2023-02-21T05:26:46.256Z,17.29
2023-02-21T05:29:18.424Z,16.52
2023-02-21T05:31:49.168Z,16.90
2023-02-21T05:34:19.896Z,17.59
2023-02-21T05:36:51.932Z,17.05
2023-02-21T05:39:22.499Z,18.20
2023-02-21T05:41:53.223Z,17.47
2023-02-21T05:44:25.076Z,17.14
2023-02-21T05:46:55.706Z,17.77
2023-02-21T05:49:28.184Z,17.51
2023-02-21T05:51:58.839Z,17.58
2023-02-21T05:54:29.399Z,17.45
2023-02-21T05:57:00.020Z,17.24
2023-02-21T05:59:31.801Z,17.29
2023-02-21T06:02:02.406Z,17.06
2023-02-21T06:04:32.987Z,17.81
2023-02-21T06:07:04.787Z,16.97
2023-02-21T06:09:35.294Z,17.78
2023-02-21T06:12:06.077Z,16.96
2023-02-21T06:14:36.662Z,18.14
2023-02-21T06:17:07.335Z,17.71
2023-02-21T06:19:37.783Z,17.22
2023-02-21T06:22:08.392Z,16.52
2023-02-21T06:24:38.932Z,16.76
2023-02-21T06:27:09.940Z,17.58
2023-02-21T06:29:40.461Z,17.26
2023-02-21T06:32:11.064Z,17.76
2023-02-21T06:34:41.571Z,16.35
2023-02-21T06:37:12.102Z,16.65
2023-02-21T06:39:42.930Z,16.80
2023-02-21T06:42:17.920Z,16.77
2023-02-21T06:44:50.247Z,16.90
2023-02-21T06:47:20.821Z,16.47
2023-02-21T06:49:51.373Z,16.30
2023-02-21T06:52:22.028Z,15.74
2023-02-21T06:54:53.149Z,16.34
2023-02-21T06:57:23.881Z,16.12
2023-02-21T06:59:54.459Z,17.70
2023-02-21T07:02:25.242Z,16.82
2023-02-21T07:04:55.886Z,17.67
2023-02-21T07:07:26.371Z,16.99
2023-02-21T07:09:57.077Z,16.40
2023-02-21T07:12:28.047Z,16.45
2023-02-21T07:14:58.568Z,17.70
2023-02-21T07:17:30.510Z,17.01
2023-02-21T07:20:01.286Z,17.94
2023-02-21T07:22:32.013Z,16.67
2023-02-21T07:25:02.776Z,16.73
2023-02-21T07:27:33.725Z,17.03
2023-02-21T07:30:04.375Z,16.49
2023-02-21T07:32:36.146Z,16.62
2023-02-21T07:35:07.170Z,17.24
2023-02-21T07:37:37.774Z,17.34
2023-02-21T07:40:08.921Z,17.11
2023-02-21T07:42:42.517Z,17.62
2023-02-21T07:45:15.974Z,16.51
2023-02-21T07:47:51.203Z,17.30
2023-02-21T07:50:23.313Z,17.08
2023-02-21T07:52:53.847Z,17.33
2023-02-21T07:55:24.317Z,16.38
2023-02-21T07:57:54.846Z,16.61
2023-02-21T08:00:25.517Z,17.30
2023-02-21T08:02:56.109Z,17.02
2023-02-21T08:05:26.895Z,17.31
2023-02-21T08:07:57.626Z,16.84
2023-02-21T08:10:29.639Z,16.79
2023-02-21T08:13:00.104Z,17.27
2023-02-21T08:15:30.647Z,17.27
2023-02-21T08:18:01.134Z,17.04
2023-02-21T08:20:32.128Z,17.13
2023-02-21T08:23:02.624Z,17.79
2023-02-21T08:25:33.361Z,18.19
2023-02-21T08:28:03.838Z,17.51
2023-02-21T08:30:34.406Z,18.33
2023-02-21T08:33:05.320Z,17.38
2023-02-21T08:35:36.089Z,17.38
2023-02-21T08:38:07.043Z,17.67
2023-02-21T08:40:37.818Z,17.57
2023-02-21T08:43:08.616Z,18.15
2023-02-21T08:45:41.218Z,17.25
2023-02-21T08:48:12.573Z,17.97
2023-02-21T08:50:43.050Z,18.18
2023-02-21T08:53:15.955Z,17.90
2023-02-21T08:55:46.925Z,17.56
2023-02-21T08:58:17.496Z,17.59
2023-02-21T09:00:49.274Z,17.96
2023-02-21T09:03:21.104Z,17.82
2023-02-21T09:05:51.899Z,18.15
2023-02-21T09:08:24.053Z,17.91
2023-02-21T09:10:55.941Z,17.91
2023-02-21T09:13:26.520Z,17.42
2023-02-21T09:15:58.460Z,18.01
2023-02-21T09:18:31.191Z,18.68
2023-02-21T09:21:01.980Z,17.78
2023-02-21T09:23:32.869Z,17.42
2023-02-21T09:26:03.340Z,18.49
2023-02-21T09:28:35.727Z,18.62
2023-02-21T09:31:06.851Z,18.28
2023-02-21T09:33:41.340Z,17.90
2023-02-21T09:36:12.987Z,17.57
2023-02-21T09:38:44.454Z,18.16
2023-02-21T09:41:16.632Z,18.24
2023-02-21T09:43:50.554Z,18.20
2023-02-21T09:46:42.046Z,18.55
2023-02-21T09:49:18.832Z,18.24
2023-02-21T09:51:51.323Z,18.69
2023-02-21T09:54:36.897Z,19.14
2023-02-21T09:57:10.159Z,18.19
2023-02-21T09:59:41.879Z,19.80
2023-02-21T10:02:22.455Z,18.43
2023-02-21T10:05:10.903Z,18.11
2023-02-21T10:07:55.979Z,18.98
2023-02-21T10:10:32.300Z,19.04
2023-02-21T10:13:11.773Z,18.27
2023-02-21T10:15:45.177Z,18.47
2023-02-21T10:18:21.660Z,19.27
2023-02-21T10:21:03.304Z,18.38
2023-02-21T10:23:40.925Z,18.15
2023-02-21T10:26:14.720Z,19.15
2023-02-21T10:28:45.414Z,18.61
2023-02-21T10:31:24.631Z,18.62
2023-02-21T10:33:55.170Z,19.12
2023-02-21T10:36:25.747Z,18.66
2023-02-21T10:38:59.290Z,19.04
2023-02-21T10:41:32.270Z,18.92
2023-02-21T10:44:25.322Z,19.11
2023-02-21T10:47:07.586Z,19.36
2023-02-21T10:49:43.898Z,19.34
2023-02-21T10:52:23.696Z,19.34
2023-02-21T10:55:26.335Z,19.75
2023-02-21T10:57:47.084Z,19.57
2023-02-21T11:00:29.440Z,19.09
2023-02-21T11:03:08.911Z,19.39
2023-02-21T11:05:40.223Z,20.15
2023-02-21T11:08:11.666Z,20.37
2023-02-21T11:10:44.839Z,18.90
2023-02-21T11:13:19.634Z,19.66
2023-02-21T11:15:52.079Z,20.28
2023-02-21T11:18:27.028Z,19.49
2023-02-21T11:21:01.954Z,19.16
2023-02-21T11:23:33.418Z,19.75
2023-02-21T11:26:13.021Z,18.94
2023-02-21T11:28:46.098Z,19.51
2023-02-21T11:31:29.464Z,19.14
2023-02-21T11:34:05.947Z,20.16
2023-02-21T11:36:39.572Z,19.46
2023-02-21T11:39:19.343Z,19.04
2023-02-21T11:41:55.438Z,18.93
2023-02-21T11:44:40.942Z,18.69
2023-02-21T11:47:34.152Z,19.16
2023-02-21T11:50:25.664Z,18.92
2023-02-21T11:53:11.251Z,18.91
2023-02-21T11:55:44.838Z,18.55
2023-02-21T11:58:33.395Z,18.80
2023-02-21T12:01:06.937Z,18.09
2023-02-21T12:04:01.381Z,17.92
2023-02-21T12:06:53.508Z,18.71
2023-02-21T12:09:59.000Z,19.49
2023-02-21T12:13:06.315Z,19.23
2023-02-21T12:16:01.421Z,19.20
2023-02-21T12:19:10.235Z,18.57
2023-02-21T12:22:20.737Z,19.77
2023-02-21T12:25:16.914Z,18.89
2023-02-21T12:28:05.516Z,19.49
2023-02-21T12:31:00.437Z,18.64
2023-02-21T12:33:58.439Z,19.04
2023-02-21T12:39:38.579Z,17.91
2023-02-21T12:42:17.899Z,19.12
2023-02-21T12:45:07.951Z,17.51
2023-02-21T12:47:54.792Z,19.39
2023-02-21T12:50:33.251Z,18.77
2023-02-21T12:53:07.841Z,18.53
2023-02-21T12:56:03.838Z,19.03
2023-02-21T12:58:37.450Z,18.43
2023-02-21T13:01:15.650Z,18.81
2023-02-21T13:04:16.797Z,19.05
2023-02-21T13:07:07.383Z,18.79
2023-02-21T13:09:46.834Z,18.82
2023-02-21T13:12:42.052Z,18.15
2023-02-21T13:15:16.103Z,18.83
2023-02-21T13:17:52.418Z,18.88
2023-02-21T13:20:26.128Z,19.08
2023-02-21T13:23:51.807Z,18.42
2023-02-21T13:26:55.766Z,18.36
2023-02-21T13:29:32.456Z,19.70
2023-02-21T13:32:17.776Z,18.79
2023-02-21T13:35:03.531Z,19.42
2023-02-21T13:37:39.472Z,19.23
2023-02-21T13:40:15.854Z,19.69
2023-02-21T13:42:47.361Z,20.90
2023-02-21T13:45:22.436Z,19.41
2023-02-21T13:48:05.107Z,20.03
2023-02-21T13:50:44.599Z,20.49
2023-02-21T13:53:24.957Z,20.40
2023-02-21T13:56:11.480Z,20.81
2023-02-21T13:58:47.670Z,19.80
2023-02-21T14:01:25.996Z,19.58
2023-02-21T14:04:00.481Z,20.38
2023-02-21T14:06:32.783Z,20.29
2023-02-21T14:09:06.106Z,20.64
2023-02-21T14:11:39.616Z,21.05
2023-02-21T14:14:31.585Z,21.82
2023-02-21T14:17:08.303Z,21.26
2023-02-21T14:19:44.618Z,20.26
2023-02-21T14:22:22.434Z,20.47
2023-02-21T14:24:55.605Z,20.22
2023-02-21T14:27:29.350Z,20.14
2023-02-21T14:30:05.788Z,20.65
2023-02-21T14:32:55.850Z,19.56
2023-02-21T14:35:41.578Z,19.83
2023-02-21T14:38:27.200Z,20.78
2023-02-21T14:41:23.826Z,20.19
2023-02-21T14:44:21.543Z,20.52
2023-02-21T14:47:19.185Z,20.76
2023-02-21T14:50:18.761Z,19.41
2023-02-21T14:52:57.834Z,18.68
2023-02-21T14:55:36.996Z,19.12
2023-02-21T14:58:25.475Z,19.21
2023-02-21T15:01:27.890Z,19.69
2023-02-21T15:04:13.408Z,19.90
2023-02-21T15:06:47.528Z,19.31
2023-02-21T15:09:22.852Z,20.18
2023-02-21T15:11:52.645Z,19.91
2023-02-21T15:14:25.767Z,20.04
2023-02-21T15:19:42.205Z,19.59
2023-02-21T15:22:25.331Z,19.13
2023-02-21T15:25:05.219Z,19.21
2023-02-21T15:27:48.031Z,18.51
2023-02-21T15:30:23.758Z,18.78
2023-02-21T15:33:18.082Z,19.10
2023-02-21T15:35:54.299Z,19.09
2023-02-21T15:38:30.670Z,19.31
2023-02-21T15:41:04.233Z,18.05
2023-02-21T15:43:58.149Z,18.51
2023-02-21T15:46:34.288Z,18.14
2023-02-21T15:49:07.252Z,19.37
2023-02-21T15:51:40.504Z,18.50
2023-02-21T15:54:31.725Z,18.85
2023-02-21T15:57:09.873Z,19.30
2023-02-21T15:59:41.790Z,18.99
2023-02-21T16:02:21.437Z,19.02
2023-02-21T16:04:54.778Z,19.13
2023-02-21T16:07:30.921Z,19.51
2023-02-21T16:10:04.644Z,19.17
2023-02-21T16:12:49.033Z,18.50
2023-02-21T16:15:28.490Z,18.88
2023-02-21T16:18:04.614Z,19.45
2023-02-21T16:20:37.928Z,18.82
2023-02-21T16:23:29.528Z,18.74
2023-02-21T16:26:13.584Z,17.95
2023-02-21T16:28:46.013Z,18.84
2023-02-21T16:31:19.664Z,18.21
2023-02-21T16:33:52.199Z,18.21
2023-02-21T16:36:28.290Z,18.93
2023-02-21T16:38:59.992Z,18.93
2023-02-21T16:41:31.605Z,19.21
2023-02-21T16:44:02.166Z,19.27
2023-02-21T16:46:32.785Z,18.77
2023-02-21T16:49:03.529Z,18.22
2023-02-21T16:51:35.751Z,18.73
2023-02-21T16:54:06.421Z,18.73
2023-02-21T16:56:39.148Z,18.13
2023-02-21T16:59:12.629Z,18.13
2023-02-21T17:01:43.736Z,18.67
2023-02-21T17:04:20.239Z,18.60
2023-02-21T17:06:53.705Z,18.78
2023-02-21T17:09:27.072Z,19.23
2023-02-21T17:11:57.978Z,19.48
2023-02-21T17:14:28.551Z,18.91
2023-02-21T17:16:59.116Z,18.69
2023-02-21T17:19:29.686Z,18.29
2023-02-21T17:22:01.282Z,19.34
2023-02-21T17:24:31.938Z,19.31
2023-02-21T17:27:03.867Z,18.72
2023-02-21T17:29:35.551Z,18.72
2023-02-21T17:32:07.352Z,19.60
2023-02-21T17:34:38.895Z,19.08
2023-02-21T17:37:10.056Z,19.34
2023-02-21T17:39:40.593Z,19.16
2023-02-21T17:42:11.141Z,19.30
2023-02-21T17:44:45.876Z,18.60
2023-02-21T17:47:16.434Z,19.13
2023-02-21T17:49:53.798Z,19.48
2023-02-21T17:52:24.352Z,18.47
2023-02-21T17:54:55.637Z,19.33
2023-02-21T17:57:27.481Z,19.32
2023-02-21T17:59:58.657Z,19.11
2023-02-21T18:02:29.372Z,19.87
2023-02-21T18:05:01.291Z,19.87
2023-02-21T18:07:32.946Z,19.21
2023-02-21T18:10:04.980Z,19.48
2023-02-21T18:15:13.702Z,19.28
2023-02-21T18:17:44.539Z,19.41
2023-02-21T18:20:16.183Z,19.30
2023-02-21T18:22:47.141Z,19.42
2023-02-21T18:25:21.575Z,19.57
2023-02-21T18:27:52.808Z,19.01
2023-02-21T18:30:23.543Z,19.01
2023-02-21T18:32:54.340Z,19.23
2023-02-21T18:35:24.998Z,19.34
2023-02-21T18:37:55.585Z,19.32
2023-02-21T18:40:28.922Z,18.63
2023-02-21T18:43:01.269Z,19.30
2023-02-21T18:45:34.233Z,19.30
2023-02-21T18:48:05.664Z,19.71
2023-02-21T18:50:36.884Z,18.64
2023-02-21T18:53:07.525Z,18.75
2023-02-21T18:55:39.990Z,18.77
2023-02-21T18:58:11.285Z,19.08
2023-02-21T19:00:43.249Z,20.07
2023-02-21T19:03:14.484Z,19.03
2023-02-21T19:05:45.172Z,19.65
2023-02-21T19:08:15.796Z,19.65
2023-02-21T19:10:47.874Z,19.70
2023-02-21T19:13:18.433Z,19.71
2023-02-21T19:15:48.976Z,19.82
2023-02-21T19:18:20.714Z,19.60
2023-02-21T19:20:51.307Z,19.59
2023-02-21T19:23:21.914Z,19.59
2023-02-21T19:25:52.469Z,18.71
2023-02-21T19:28:24.462Z,19.13
2023-02-21T19:30:56.833Z,19.11
2023-02-21T19:33:27.430Z,18.98
2023-02-21T19:35:59.044Z,18.96
2023-02-21T19:38:30.731Z,19.29
2023-02-21T19:41:02.844Z,19.28
2023-02-21T19:43:34.039Z,19.28
2023-02-21T19:46:04.834Z,18.74
2023-02-21T19:48:35.466Z,18.74
2023-02-21T19:51:06.249Z,19.20
2023-02-21T19:53:36.812Z,19.32
2023-02-21T19:56:09.080Z,18.69
2023-02-21T19:58:39.623Z,18.69
2023-02-21T20:01:10.470Z,19.18
2023-02-21T20:03:42.206Z,19.49
2023-02-21T20:06:12.724Z,19.49
2023-02-21T20:08:46.347Z,19.41
2023-02-21T20:11:19.886Z,19.18
2023-02-21T20:13:51.561Z,19.08
2023-02-21T20:16:23.048Z,18.54
2023-02-21T20:18:54.617Z,18.74
2023-02-21T20:21:31.484Z,18.74
2023-02-21T20:24:02.033Z,18.35
2023-02-21T20:26:32.682Z,18.35
2023-02-21T20:29:03.295Z,18.61
2023-02-21T20:31:36.459Z,18.61
2023-02-21T20:34:07.136Z,18.61
2023-02-21T20:36:41.295Z,18.61
2023-02-21T20:39:27.626Z,18.63
2023-02-21T20:41:57.567Z,19.25
2023-02-21T20:44:28.739Z,19.41
2023-02-21T20:46:59.619Z,19.50
2023-02-21T20:49:30.204Z,19.53
2023-02-21T20:52:00.801Z,19.40
2023-02-21T20:54:31.371Z,19.40
2023-02-21T20:57:02.084Z,19.63
2023-02-21T20:59:39.048Z,19.60
2023-02-21T21:02:10.925Z,19.42
2023-02-21T21:04:44.204Z,19.31
2023-02-21T21:07:23.467Z,19.55
2023-02-21T21:09:54.671Z,19.46
2023-02-21T21:12:25.876Z,19.63
2023-02-21T21:14:58.319Z,19.58
2023-02-21T21:17:29.353Z,19.34
2023-02-21T21:20:00.019Z,19.26
2023-02-21T21:22:30.672Z,18.73
2023-02-21T21:25:01.339Z,18.97
2023-02-21T21:27:33.109Z,19.46
2023-02-21T21:30:06.897Z,19.50
2023-02-21T21:32:37.448Z,19.51
2023-02-21T21:35:08.782Z,18.98
2023-02-21T21:37:40.219Z,18.86
2023-02-21T21:40:17.712Z,19.31
2023-02-21T21:42:53.455Z,19.22
2023-02-21T21:45:26.585Z,18.61
2023-02-21T21:48:00.200Z,18.37
2023-02-21T21:50:30.821Z,18.22
2023-02-21T21:53:01.719Z,18.75
2023-02-21T21:55:33.027Z,19.10
2023-02-21T21:58:06.441Z,18.63
2023-02-21T22:00:39.234Z,19.40
2023-02-21T22:03:13.422Z,18.92
2023-02-21T22:05:45.139Z,19.23
2023-02-21T22:08:18.030Z,19.28
2023-02-21T22:10:48.637Z,19.30
2023-02-21T22:13:21.072Z,19.25
2023-02-21T22:15:53.398Z,18.88
2023-02-21T22:18:24.238Z,18.83
2023-02-21T22:20:55.915Z,19.05
2023-02-21T22:23:26.506Z,19.02
2023-02-21T22:25:58.195Z,19.14
2023-02-21T22:28:28.789Z,18.82
2023-02-21T22:30:59.433Z,18.96
2023-02-21T22:33:30.047Z,18.95
2023-02-21T22:36:02.390Z,18.49
2023-02-21T22:38:32.963Z,19.02
2023-02-21T22:41:03.575Z,19.18
2023-02-21T22:43:34.089Z,19.10
2023-02-21T22:46:06.618Z,19.22
2023-02-21T22:48:37.206Z,19.11
2023-02-21T22:51:09.560Z,19.20
2023-02-21T22:53:41.494Z,19.08
2023-02-21T22:56:16.317Z,18.94
2023-02-21T22:58:48.811Z,18.75
2023-02-21T23:01:21.149Z,18.69
2023-02-21T23:03:51.760Z,19.03
2023-02-21T23:06:23.331Z,18.83
2023-02-21T23:08:53.892Z,18.74
2023-02-21T23:11:24.741Z,18.65
2023-02-21T23:13:55.292Z,18.38
2023-02-21T23:16:27.555Z,18.49
2023-02-21T23:18:59.056Z,18.34
2023-02-21T23:21:30.765Z,18.27
2023-02-21T23:24:01.718Z,18.85
2023-02-21T23:26:32.561Z,18.67
2023-02-21T23:29:03.093Z,18.39
2023-02-21T23:31:34.111Z,18.32
2023-02-21T23:34:04.712Z,18.41
2023-02-21T23:36:35.291Z,18.38
2023-02-21T23:39:08.584Z,18.21
2023-02-21T23:41:41.275Z,18.64
2023-02-21T23:44:14.057Z,18.36
2023-02-21T23:46:46.218Z,18.62
2023-02-21T23:49:18.004Z,18.54
2023-02-21T23:51:50.151Z,18.54
2023-02-21T23:54:21.274Z,18.36
2023-02-21T23:56:52.972Z,18.27
2023-02-21T23:59:23.518Z,18.15
